Time;durP1;ratioP1;P1;durP2;ratioP2;P2;SDS_P1;SDS_P2;PMS_P1;PMS_P2;Temp;Humidity;BMP_temperature;BMP_pressure;BME280_temperature;BME280_humidity;BME280_pressure;Samples;Min_cycle;Max_cycle;Signal;HPM_P1;HPM_P2
2021/03/20 00:00:32;;;;;;;7.70;6.90;;;3.10;94.40;3.60;99849.00;;;;345022;28;92021;-90
2021/03/20 00:00:54;;;;;;;7.68;6.90;;;3.20;94.40;3.60;99850.00;;;;346653;28;83547;-90
2021/03/20 00:01:13;;;;;;;8.23;7.18;;;3.20;94.40;3.60;99844.00;;;;346566;28;88383;-89
2021/03/20 00:01:31;;;;;;;7.82;7.03;;;3.20;94.40;3.60;99851.00;;;;343210;28;83517;-90
2021/03/20 00:01:45;;;;;;;7.57;6.57;;;3.20;94.30;3.60;99853.00;;;;344212;28;88589;-89
2021/03/20 00:01:58;;;;;;;8.50;7.32;;;3.20;94.30;3.60;99861.00;;;;345597;28;82642;-91
2021/03/20 00:02:11;;;;;;;8.15;7.10;;;3.20;94.30;3.60;99842.00;;;;344410;28;88372;-89
2021/03/20 00:02:29;;;;;;;7.90;6.20;;;3.20;94.60;3.60;99847.00;;;;343369;28;83662;-89
2021/03/20 00:02:47;;;;;;;7.95;6.95;;;3.20;94.30;3.50;99852.00;;;;344443;28;89650;-89
2021/03/20 00:03:07;;;;;;;7.93;7.10;;;3.20;94.30;3.50;99859.00;;;;343404;28;83634;-89
2021/03/20 00:03:19;;;;;;;7.93;6.60;;;3.20;94.30;3.50;99856.00;;;;346481;28;88169;-90
2021/03/20 00:03:34;;;;;;;7.70;6.70;;;3.10;94.30;3.50;99849.00;;;;345087;28;82830;-89
2021/03/20 00:03:47;;;;;;;7.97;7.18;;;3.10;94.30;3.60;99854.00;;;;347024;28;89410;-90
2021/03/20 00:03:59;;;;;;;7.55;6.85;;;3.10;94.30;3.50;99860.00;;;;343682;28;83173;-89
2021/03/20 00:04:11;;;;;;;7.82;7.05;;;3.10;94.30;3.40;99853.00;;;;343477;28;91312;-89
2021/03/20 00:04:26;;;;;;;7.15;6.43;;;3.10;94.40;3.50;99856.00;;;;346303;28;83564;-89
2021/03/20 00:04:38;;;;;;;7.47;6.63;;;3.10;94.40;3.50;99849.00;;;;345905;28;90706;-90
2021/03/20 00:04:51;;;;;;;8.02;7.22;;;3.10;94.60;3.50;99853.00;;;;344894;28;83538;-89
2021/03/20 00:05:03;;;;;;;7.88;7.07;;;3.10;94.40;3.40;99851.00;;;;344492;28;90969;-89
2021/03/20 00:05:19;;;;;;;8.63;6.95;;;3.10;94.40;3.50;99854.00;;;;346266;28;83583;-89
2021/03/20 00:05:31;;;;;;;10.40;7.20;;;3.10;94.40;3.50;99857.00;;;;345924;28;91870;-91
2021/03/20 00:05:45;;;;;;;9.90;7.35;;;3.10;94.40;3.60;99855.00;;;;346354;28;82688;-89
2021/03/20 00:06:08;;;;;;;7.82;6.78;;;3.10;94.40;3.50;99856.00;;;;343278;28;91875;-90
2021/03/20 00:06:39;;;;;;;7.63;6.82;;;3.10;94.40;3.60;99859.00;;;;343281;28;82626;-89
2021/03/20 00:06:54;;;;;;;8.35;7.43;;;3.10;94.50;3.50;99856.00;;;;345830;28;89470;-90
2021/03/20 00:07:19;;;;;;;8.57;7.78;;;3.10;94.50;3.40;99868.00;;;;343349;28;82401;-89
2021/03/20 00:07:33;;;;;;;8.57;7.78;;;3.10;94.40;3.40;99863.00;;;;343094;28;88769;-91
2021/03/20 00:07:47;;;;;;;8.15;7.35;;;3.00;94.40;3.40;99868.00;;;;345037;28;83473;-89
2021/03/20 00:07:59;;;;;;;7.68;6.90;;;3.00;94.40;3.40;99862.00;;;;342981;28;91128;-89
2021/03/20 00:08:18;;;;;;;7.85;7.13;;;3.00;94.40;3.50;99861.00;;;;346132;28;84234;-90
2021/03/20 00:08:35;;;;;;;7.88;7.03;;;3.00;94.40;3.40;99858.00;;;;343630;28;90983;-89
2021/03/20 00:08:47;;;;;;;6.95;6.13;;;3.00;94.40;3.50;99863.00;;;;343210;28;83426;-89
2021/03/20 00:09:09;;;;;;;7.85;6.32;;;3.00;94.50;3.50;99862.00;;;;342782;28;90095;-90
2021/03/20 00:09:32;;;;;;;8.00;6.65;;;3.00;94.50;3.50;99863.00;;;;344815;28;84135;-89
2021/03/20 00:09:57;;;;;;;7.70;6.75;;;3.00;94.50;3.60;99859.00;;;;344633;28;88169;-90
2021/03/20 00:10:17;;;;;;;6.82;6.00;;;3.00;94.50;3.60;99854.00;;;;345413;28;82442;-89
2021/03/20 00:10:29;;;;;;;7.18;6.47;;;3.00;94.50;3.60;99860.00;;;;345311;28;91331;-89
2021/03/20 00:10:45;;;;;;;7.15;6.45;;;3.00;94.50;3.60;99865.00;;;;344433;28;82425;-89
2021/03/20 00:11:10;;;;;;;6.82;6.13;;;3.10;94.50;3.50;99861.00;;;;342619;28;87430;-89
2021/03/20 00:11:29;;;;;;;7.40;6.63;;;3.10;94.70;3.40;99869.00;;;;346373;27;83487;-88
2021/03/20 00:11:43;;;;;;;7.90;7.03;;;3.00;94.30;3.50;99860.00;;;;343803;28;92154;-89
2021/03/20 00:12:04;;;;;;;7.40;6.65;;;3.10;94.40;3.50;99866.00;;;;343072;28;82544;-89
2021/03/20 00:12:18;;;;;;;7.57;6.75;;;3.00;94.40;3.40;99869.00;;;;343834;28;90470;-90
2021/03/20 00:12:45;;;;;;;7.30;6.60;;;3.00;94.40;3.30;99863.00;;;;343874;28;82714;-89
2021/03/20 00:12:58;;;;;;;7.78;6.97;;;3.00;94.50;3.30;99872.00;;;;345076;28;89328;-90
2021/03/20 00:13:16;;;;;;;7.80;6.85;;;3.00;94.50;3.40;99870.00;;;;342979;28;83731;-89
2021/03/20 00:13:32;;;;;;;7.93;7.05;;;3.00;94.50;3.50;99867.00;;;;345215;28;88696;-89
2021/03/20 00:13:45;;;;;;;7.45;6.75;;;3.00;94.60;3.40;99866.00;;;;343767;28;83422;-90
2021/03/20 00:14:01;;;;;;;7.30;6.60;;;3.00;94.60;3.50;99864.00;;;;345361;28;88623;-90
2021/03/20 00:14:17;;;;;;;7.40;6.60;;;3.00;94.60;3.50;99865.00;;;;342999;28;82539;-89
2021/03/20 00:14:38;;;;;;;7.02;6.30;;;3.00;94.60;3.40;99865.00;;;;342368;28;90009;-89
2021/03/20 00:14:51;;;;;;;7.60;6.40;;;3.00;94.50;3.40;99868.00;;;;342864;28;82586;-89
2021/03/20 00:15:12;;;;;;;7.78;6.65;;;3.00;94.50;3.40;99871.00;;;;345755;28;89569;-89
2021/03/20 00:15:25;;;;;;;8.15;7.20;;;3.00;94.60;3.50;99873.00;;;;347665;27;82695;-89
2021/03/20 00:15:53;;;;;;;8.48;7.55;;;3.00;94.50;3.50;99866.00;;;;343850;28;87588;-90
2021/03/20 00:16:07;;;;;;;8.38;7.57;;;3.00;94.50;3.40;99871.00;;;;343209;28;82393;-89
2021/03/20 00:16:21;;;;;;;7.78;7.07;;;3.00;94.50;3.50;99860.00;;;;344348;28;88372;-90
2021/03/20 00:16:42;;;;;;;7.55;6.85;;;3.00;94.40;3.50;99871.00;;;;344079;28;83555;-89
2021/03/20 00:16:56;;;;;;;7.72;6.93;;;3.00;94.40;3.50;99863.00;;;;342551;28;89780;-89
2021/03/20 00:17:09;;;;;;;7.78;6.95;;;3.00;94.40;3.50;99864.00;;;;342161;28;83652;-90
2021/03/20 00:17:23;;;;;;;8.05;7.25;;;3.10;94.40;3.50;99864.00;;;;341167;28;90739;-90
2021/03/20 00:17:35;;;;;;;7.38;6.68;;;3.00;94.30;3.40;99865.00;;;;345649;28;83647;-89
2021/03/20 00:17:47;;;;;;;7.25;6.55;;;3.00;94.30;3.40;99862.00;;;;345343;28;88609;-90
2021/03/20 00:18:07;;;;;;;8.23;6.82;;;3.00;94.30;3.50;99868.00;;;;345645;28;83544;-89
2021/03/20 00:18:23;;;;;;;8.78;7.40;;;3.00;94.30;3.50;99863.00;;;;346794;28;88732;-89
2021/03/20 00:18:44;;;;;;;7.15;6.43;;;3.00;94.30;3.50;99869.00;;;;345769;28;83551;-89
2021/03/20 00:18:57;;;;;;;6.95;6.25;;;3.00;94.40;3.50;99882.00;;;;342628;28;89949;-88
2021/03/20 00:19:34;;;;;;;7.97;7.18;;;3.00;94.40;3.50;99868.00;;;;341716;28;83389;-89
2021/03/20 00:19:46;;;;;;;8.13;6.80;;;3.10;94.40;3.40;99866.00;;;;344105;28;91992;-90
2021/03/20 00:19:58;;;;;;;8.15;7.05;;;3.00;94.30;3.50;99869.00;;;;344286;28;83453;-90
2021/03/20 00:20:19;;;;;;;7.45;6.68;;;3.00;94.30;3.40;99875.00;;;;342784;28;91673;-89
2021/03/20 00:20:39;;;;;;;8.05;7.25;;;3.00;94.30;3.40;99868.00;;;;346731;28;83385;-89
2021/03/20 00:20:56;;;;;;;7.57;6.55;;;3.00;94.40;3.30;99872.00;;;;345198;28;89664;-89
2021/03/20 00:21:19;;;;;;;8.40;6.63;;;3.00;94.40;3.40;99872.00;;;;344934;28;83609;-89
2021/03/20 00:21:32;;;;;;;8.77;7.25;;;3.00;94.50;3.40;99867.00;;;;338187;28;90978;-90
2021/03/20 00:21:44;;;;;;;7.88;6.93;;;3.00;94.50;3.40;99866.00;;;;345910;28;84160;-89
2021/03/20 00:22:04;;;;;;;7.80;6.93;;;3.00;94.50;3.50;99869.00;;;;343717;28;91005;-89
2021/03/20 00:22:18;;;;;;;8.25;7.40;;;3.00;94.50;3.40;99868.00;;;;343026;28;82577;-89
2021/03/20 00:22:31;;;;;;;7.82;6.93;;;3.00;94.50;3.50;99867.00;;;;343894;28;88622;-89
2021/03/20 00:22:44;;;;;;;7.30;6.47;;;3.00;94.40;3.40;99865.00;;;;343386;28;83498;-89
2021/03/20 00:22:59;;;;;;;7.47;6.50;;;3.00;94.50;3.40;99875.00;;;;341300;28;93103;-89
2021/03/20 00:23:11;;;;;;;7.40;6.53;;;3.00;94.40;3.40;99872.00;;;;346896;27;83505;-89
2021/03/20 00:23:25;;;;;;;6.90;6.20;;;3.00;94.40;3.40;99871.00;;;;341247;28;90507;-89
2021/03/20 00:23:38;;;;;;;6.85;6.03;;;3.00;94.40;3.40;99872.00;;;;344344;28;83507;-90
2021/03/20 00:24:00;;;;;;;7.95;6.13;;;3.00;94.50;3.40;99865.00;;;;343849;28;88856;-90
2021/03/20 00:24:12;;;;;;;7.95;6.38;;;3.00;94.40;3.40;99862.00;;;;347378;27;83443;-90
2021/03/20 00:24:26;;;;;;;7.40;6.45;;;3.00;94.40;3.30;99870.00;;;;342452;28;90084;-90
2021/03/20 00:24:39;;;;;;;7.28;6.50;;;3.00;94.60;3.30;99875.00;;;;341750;28;83317;-90
2021/03/20 00:24:56;;;;;;;8.07;6.60;;;3.00;94.40;3.30;99871.00;;;;342793;28;90680;-89
2021/03/20 00:25:09;;;;;;;8.60;7.28;;;2.90;94.40;3.40;99869.00;;;;348320;27;83471;-89
2021/03/20 00:25:21;;;;;;;8.88;7.72;;;2.90;94.40;3.40;99865.00;;;;344047;28;88916;-88
2021/03/20 00:25:39;;;;;;;8.55;7.60;;;2.90;94.70;3.40;99874.00;;;;347199;27;82554;-89
2021/03/20 00:25:56;;;;;;;8.20;7.25;;;2.90;94.40;3.40;99878.00;;;;343757;28;89970;-90
2021/03/20 00:26:12;;;;;;;8.13;6.78;;;3.00;94.50;3.40;99876.00;;;;344336;28;82511;-89
2021/03/20 00:26:25;;;;;;;8.23;6.63;;;3.00;94.50;3.40;99868.00;;;;343847;28;88823;-89
2021/03/20 00:26:41;;;;;;;7.75;6.95;;;3.00;94.40;3.30;99880.00;;;;345645;28;82543;-89
2021/03/20 00:26:55;;;;;;;7.82;7.07;;;2.90;94.40;3.40;99873.00;;;;342611;28;87440;-89
2021/03/20 00:27:09;;;;;;;7.80;7.00;;;2.90;94.40;3.40;99880.00;;;;341435;28;83768;-89
2021/03/20 00:27:23;;;;;;;8.15;6.53;;;2.90;94.40;3.40;99879.00;;;;344736;28;88795;-89
2021/03/20 00:27:38;;;;;;;7.78;6.03;;;2.90;94.40;3.40;99882.00;;;;344587;28;83293;-90
2021/03/20 00:28:00;;;;;;;7.18;6.28;;;2.90;94.40;3.30;99881.00;;;;342620;28;89719;-90
2021/03/20 00:28:21;;;;;;;8.07;6.97;;;2.90;94.40;3.30;99871.00;;;;343433;28;83477;-90
2021/03/20 00:28:37;;;;;;;7.57;6.85;;;2.90;94.40;3.40;99868.00;;;;341857;28;93624;-90
2021/03/20 00:28:52;;;;;;;7.38;6.68;;;2.90;94.40;3.40;99869.00;;;;343096;28;83824;-91
2021/03/20 00:29:05;;;;;;;7.40;6.65;;;2.90;94.40;3.30;99868.00;;;;345174;28;90650;-89
2021/03/20 00:29:17;;;;;;;7.82;7.03;;;2.90;94.40;3.20;99880.00;;;;344338;28;82552;-90
2021/03/20 00:29:32;;;;;;;8.77;7.63;;;2.90;94.40;3.20;99870.00;;;;345271;28;90504;-90
2021/03/20 00:29:43;;;;;;;8.42;7.28;;;2.90;94.70;3.30;99869.00;;;;345487;28;84070;-91
2021/03/20 00:29:56;;;;;;;7.75;6.75;;;2.90;94.50;3.30;99882.00;;;;345397;28;91480;-89
2021/03/20 00:30:10;;;;;;;8.05;6.35;;;2.90;94.50;3.40;99869.00;;;;341397;28;83558;-91
2021/03/20 00:30:24;;;;;;;7.63;6.20;;;2.90;94.50;3.40;99876.00;;;;343747;28;91381;-89
2021/03/20 00:30:41;;;;;;;7.22;6.50;;;2.90;94.50;3.40;99871.00;;;;344250;28;84466;-90
2021/03/20 00:31:11;;;;;;;7.28;6.53;;;2.90;94.50;3.30;99881.00;;;;344299;28;91271;-89
2021/03/20 00:31:23;;;;;;;7.43;6.68;;;2.90;94.50;3.30;99874.00;;;;344447;28;84242;-89
2021/03/20 00:31:46;;;;;;;7.10;6.40;;;2.90;94.50;3.30;99871.00;;;;343777;28;89843;-89
2021/03/20 00:32:02;;;;;;;7.20;6.50;;;3.00;94.50;3.40;99868.00;;;;345207;28;83417;-88
2021/03/20 00:32:15;;;;;;;7.13;6.43;;;2.90;94.40;3.30;99873.00;;;;341158;28;90991;-89
2021/03/20 00:32:30;;;;;;;6.88;6.18;;;2.90;94.40;3.30;99873.00;;;;342769;28;83359;-89
2021/03/20 00:32:43;;;;;;;6.82;6.00;;;2.90;94.40;3.20;99891.00;;;;343845;28;88762;-91
2021/03/20 00:32:57;;;;;;;6.97;6.25;;;2.90;94.40;3.10;99864.00;;;;342940;28;83565;-89
2021/03/20 00:33:11;;;;;;;7.78;6.97;;;2.80;94.40;3.30;99875.00;;;;342010;28;88186;-89
2021/03/20 00:33:25;;;;;;;7.90;7.10;;;2.80;94.50;3.30;99873.00;;;;344343;28;82942;-89
2021/03/20 00:33:44;;;;;;;7.63;6.88;;;2.80;94.50;3.30;99877.00;;;;342549;28;90511;-89
2021/03/20 00:33:57;;;;;;;7.28;6.35;;;2.90;94.60;3.30;99875.00;;;;344359;28;82554;-89
2021/03/20 00:34:09;;;;;;;7.63;6.38;;;2.90;94.60;3.30;99886.00;;;;345233;28;90590;-89
2021/03/20 00:34:21;;;;;;;7.63;6.57;;;2.90;94.60;3.30;99866.00;;;;344283;28;83986;-89
2021/03/20 00:34:33;;;;;;;7.75;6.95;;;2.80;94.50;3.30;99873.00;;;;345142;28;90602;-89
2021/03/20 00:34:44;;;;;;;7.63;6.85;;;2.80;94.40;3.30;99866.00;;;;345784;28;82382;-89
2021/03/20 00:34:58;;;;;;;7.53;6.80;;;2.90;94.50;3.30;99877.00;;;;342656;28;91162;-89
2021/03/20 00:35:11;;;;;;;7.95;7.13;;;2.80;94.40;3.30;99877.00;;;;345267;28;83450;-89
2021/03/20 00:35:25;;;;;;;8.23;7.03;;;2.80;94.50;3.30;99869.00;;;;343863;28;91214;-89
2021/03/20 00:35:36;;;;;;;7.22;6.53;;;2.80;94.50;3.30;99872.00;;;;344220;28;83704;-90
2021/03/20 00:35:51;;;;;;;7.65;6.47;;;2.80;94.50;3.30;99867.00;;;;344003;28;89449;-90
2021/03/20 00:36:07;;;;;;;9.27;6.80;;;2.90;94.60;3.30;99866.00;;;;343116;28;83460;-89
2021/03/20 00:36:19;;;;;;;9.68;7.13;;;2.80;94.50;3.30;99874.00;;;;343933;28;90180;-89
2021/03/20 00:36:48;;;;;;;7.22;6.10;;;2.90;94.50;3.30;99875.00;;;;344183;28;83934;-90
2021/03/20 00:37:00;;;;;;;7.28;5.85;;;2.90;94.50;3.30;99878.00;;;;343944;28;88644;-89
2021/03/20 00:37:12;;;;;;;7.72;6.40;;;2.90;94.50;3.30;99869.00;;;;345450;28;83602;-89
2021/03/20 00:37:25;;;;;;;7.85;6.72;;;2.90;94.50;3.30;99874.00;;;;343915;28;88378;-89
2021/03/20 00:37:38;;;;;;;8.80;6.95;;;2.90;94.40;3.30;99872.00;;;;345800;28;84709;-89
2021/03/20 00:37:52;;;;;;;8.27;6.55;;;2.90;94.50;3.30;99876.00;;;;344990;28;92226;-90
2021/03/20 00:38:13;;;;;;;7.72;6.10;;;2.80;94.50;3.30;99872.00;;;;342629;28;83308;-89
2021/03/20 00:38:30;;;;;;;7.13;6.38;;;2.90;94.50;3.30;99877.00;;;;345361;27;88484;-89
2021/03/20 00:38:55;;;;;;;7.32;6.18;;;2.80;94.50;3.30;99875.00;;;;345937;28;82406;-89
2021/03/20 00:39:10;;;;;;;7.22;5.95;;;2.80;94.50;3.30;99872.00;;;;345292;28;88605;-90
2021/03/20 00:39:23;;;;;;;7.05;6.35;;;2.80;94.60;3.30;99876.00;;;;342964;28;83396;-91
2021/03/20 00:39:42;;;;;;;6.75;6.13;;;2.80;94.60;3.30;99879.00;;;;348444;27;89412;-90
2021/03/20 00:40:13;;;;;;;7.38;6.57;;;2.80;94.50;3.30;99882.00;;;;347265;28;82313;-90
2021/03/20 00:40:29;;;;;;;7.05;6.35;;;2.90;94.50;3.30;99881.00;;;;345034;28;87767;-89
2021/03/20 00:40:45;;;;;;;6.97;6.28;;;2.80;94.60;3.30;99874.00;;;;346886;28;83534;-89
2021/03/20 00:41:09;;;;;;;8.23;6.35;;;2.80;94.60;3.30;99877.00;;;;346552;28;89862;-89
2021/03/20 00:41:24;;;;;;;8.63;6.15;;;2.80;94.60;3.30;99886.00;;;;345686;28;82555;-89
2021/03/20 00:41:37;;;;;;;7.88;6.05;;;2.80;94.60;3.30;99879.00;;;;345591;28;89069;-90
2021/03/20 00:41:51;;;;;;;7.28;6.05;;;2.80;94.60;3.30;99880.00;;;;343076;28;82486;-89
2021/03/20 00:42:13;;;;;;;7.47;6.55;;;2.80;94.60;3.30;99875.00;;;;345358;28;89480;-89
2021/03/20 00:42:40;;;;;;;7.32;6.45;;;2.80;94.60;3.30;99871.00;;;;342875;28;83759;-89
2021/03/20 00:42:54;;;;;;;8.35;6.35;;;2.80;94.80;3.30;99875.00;;;;345433;28;91758;-89
2021/03/20 00:43:09;;;;;;;9.00;6.38;;;2.80;94.50;3.30;99874.00;;;;344025;28;83524;-89
2021/03/20 00:43:27;;;;;;;8.02;6.25;;;2.90;94.50;3.30;99868.00;;;;342583;28;90965;-89
2021/03/20 00:43:51;;;;;;;8.35;6.50;;;2.90;94.60;3.30;99872.00;;;;345827;28;83423;-89
2021/03/20 00:44:08;;;;;;;7.40;5.85;;;2.90;94.50;3.30;99872.00;;;;345207;28;91423;-89
2021/03/20 00:44:20;;;;;;;7.13;6.38;;;2.90;94.50;3.30;99873.00;;;;346641;28;83665;-89
2021/03/20 00:44:43;;;;;;;7.80;7.00;;;2.90;94.50;3.30;99873.00;;;;343848;28;89907;-89
2021/03/20 00:44:55;;;;;;;7.95;7.15;;;2.90;94.50;3.40;99873.00;;;;344331;28;83441;-89
2021/03/20 00:45:10;;;;;;;7.18;6.47;;;2.90;94.50;3.30;99873.00;;;;345221;28;91044;-89
2021/03/20 00:45:27;;;;;;;6.78;5.97;;;2.90;94.40;3.30;99867.00;;;;344327;28;83291;-89
2021/03/20 00:45:43;;;;;;;6.85;6.15;;;2.90;94.40;3.40;99871.00;;;;342880;28;91645;-89
2021/03/20 00:46:08;;;;;;;8.05;6.35;;;2.90;94.40;3.30;99872.00;;;;342796;28;83795;-89
2021/03/20 00:46:35;;;;;;;6.85;6.13;;;2.90;94.40;3.40;99878.00;;;;342929;28;88415;-89
2021/03/20 00:46:49;;;;;;;6.82;6.13;;;2.90;94.40;3.30;99869.00;;;;343020;28;82503;-89
2021/03/20 00:47:04;;;;;;;7.50;6.70;;;2.90;94.40;3.40;99873.00;;;;343774;28;89375;-89
2021/03/20 00:47:20;;;;;;;7.18;6.47;;;2.90;94.40;3.40;99874.00;;;;344319;28;83378;-89
2021/03/20 00:47:55;;;;;;;7.53;6.72;;;2.90;94.40;3.40;99886.00;;;;342066;28;88990;-89
2021/03/20 00:48:14;;;;;;;8.05;6.03;;;2.90;94.40;3.40;99871.00;;;;341817;28;83747;-89
2021/03/20 00:48:30;;;;;;;7.85;6.45;;;2.90;94.40;3.40;99874.00;;;;343605;28;90882;-89
2021/03/20 00:48:44;;;;;;;7.25;6.25;;;2.90;94.40;3.20;99878.00;;;;343555;28;83389;-89
2021/03/20 00:48:57;;;;;;;7.13;6.03;;;2.90;94.30;3.20;99866.00;;;;345453;28;89804;-88
2021/03/20 00:49:10;;;;;;;7.28;6.40;;;2.90;94.30;3.20;99877.00;;;;342842;28;83398;-89
2021/03/20 00:49:22;;;;;;;7.38;6.65;;;2.80;94.30;3.30;99871.00;;;;343840;28;89543;-90
2021/03/20 00:49:36;;;;;;;7.20;6.43;;;2.80;94.40;3.20;99866.00;;;;342536;28;83616;-90
2021/03/20 00:49:49;;;;;;;7.20;6.18;;;2.80;94.40;3.20;99866.00;;;;346881;28;90133;-89
2021/03/20 00:50:03;;;;;;;6.90;5.93;;;2.80;94.40;3.30;99871.00;;;;342964;28;83484;-90
2021/03/20 00:50:18;;;;;;;7.45;5.65;;;2.80;94.40;3.10;99877.00;;;;346747;28;90889;-89
2021/03/20 00:50:39;;;;;;;7.47;6.63;;;2.80;94.40;3.10;99872.00;;;;343122;28;83401;-89
2021/03/20 00:51:02;;;;;;;7.22;6.53;;;2.80;94.40;3.20;99875.00;;;;348095;27;91017;-89
2021/03/20 00:51:19;;;;;;;6.90;6.22;;;2.80;94.50;3.20;99876.00;;;;344103;28;83855;-90
2021/03/20 00:51:32;;;;;;;7.05;6.35;;;2.80;94.50;3.20;99879.00;;;;342470;28;89494;-89
2021/03/20 00:51:58;;;;;;;7.53;6.35;;;2.80;94.50;3.20;99879.00;;;;344223;28;83374;-89
2021/03/20 00:52:18;;;;;;;6.90;5.93;;;2.80;94.60;3.20;99871.00;;;;341361;28;90164;-89
2021/03/20 00:52:46;;;;;;;7.45;6.00;;;2.80;94.60;3.20;99877.00;;;;341581;28;83995;-90
2021/03/20 00:52:59;;;;;;;6.93;6.22;;;2.70;94.50;3.20;99864.00;;;;343685;28;88553;-89
2021/03/20 00:53:17;;;;;;;7.20;6.50;;;2.80;94.60;3.20;99875.00;;;;342764;28;83529;-89
2021/03/20 00:53:31;;;;;;;7.60;6.88;;;2.80;94.60;3.20;99881.00;;;;344064;28;90610;-89
2021/03/20 00:53:45;;;;;;;7.55;6.85;;;2.80;94.50;3.20;99880.00;;;;343979;28;82561;-89
2021/03/20 00:54:00;;;;;;;8.10;6.80;;;2.80;94.50;3.20;99880.00;;;;343693;28;90610;-89
2021/03/20 00:54:16;;;;;;;8.93;7.03;;;2.80;94.50;3.20;99880.00;;;;344189;28;84036;-89
2021/03/20 00:54:38;;;;;;;7.82;6.75;;;2.80;94.50;3.20;99881.00;;;;342630;28;90925;-89
2021/03/20 00:54:56;;;;;;;8.02;6.80;;;2.80;94.50;3.20;99877.00;;;;341646;28;83478;-90
2021/03/20 00:55:14;;;;;;;8.15;7.00;;;2.80;94.50;3.20;99875.00;;;;342476;28;90994;-89
2021/03/20 00:55:47;;;;;;;7.78;6.78;;;2.80;94.50;3.20;99871.00;;;;342911;28;83490;-89
2021/03/20 00:56:05;;;;;;;7.72;6.65;;;2.80;94.50;3.30;99883.00;;;;342615;28;92428;-89
2021/03/20 00:56:40;;;;;;;7.35;6.53;;;2.80;94.50;3.20;99880.00;;;;344464;28;84145;-89
2021/03/20 00:56:54;;;;;;;8.05;7.18;;;2.80;94.50;3.20;99879.00;;;;342398;28;87086;-90
2021/03/20 00:57:10;;;;;;;6.97;6.28;;;2.80;94.50;3.30;99886.00;;;;347157;28;83494;-89
2021/03/20 00:57:22;;;;;;;6.66;5.94;;;2.80;94.50;3.30;99878.00;;;;344852;28;91056;-89
2021/03/20 00:57:46;;;;;;;7.20;6.05;;;2.80;94.50;3.20;99885.00;;;;344319;28;82992;-89
2021/03/20 00:57:58;;;;;;;8.07;7.03;;;2.80;94.50;3.20;99887.00;;;;343829;28;89460;-89
2021/03/20 00:58:32;;;;;;;7.88;6.82;;;2.80;94.50;3.30;99882.00;;;;344281;28;83481;-88
2021/03/20 00:58:44;;;;;;;7.95;6.90;;;2.80;94.40;3.20;99877.00;;;;343972;28;87209;-89
2021/03/20 00:58:58;;;;;;;8.32;7.28;;;2.80;94.40;3.30;99881.00;;;;345691;28;83495;-89
2021/03/20 00:59:10;;;;;;;7.65;6.60;;;2.80;94.40;3.30;99876.00;;;;345006;28;88931;-89
2021/03/20 00:59:23;;;;;;;7.22;6.22;;;2.80;94.40;3.30;99880.00;;;;342997;28;83488;-90
2021/03/20 00:59:38;;;;;;;7.38;6.55;;;2.80;94.40;3.30;99874.00;;;;345150;28;90003;-91
2021/03/20 00:59:52;;;;;;;7.50;6.68;;;2.80;94.40;3.30;99881.00;;;;348641;27;83329;-90
2021/03/20 01:00:17;;;;;;;7.63;6.82;;;2.80;94.40;3.30;99879.00;;;;346717;28;87263;-88
2021/03/20 01:00:39;;;;;;;7.43;6.53;;;2.80;94.40;3.30;99886.00;;;;345415;28;83258;-89
2021/03/20 01:01:17;;;;;;;8.98;6.72;;;2.80;94.40;3.30;99895.00;;;;344050;28;89544;-89
2021/03/20 01:01:32;;;;;;;8.90;6.80;;;2.90;94.30;3.30;99874.00;;;;344507;28;83850;-89
2021/03/20 01:01:45;;;;;;;8.35;6.32;;;2.90;94.40;3.40;99879.00;;;;345244;28;90090;-90
2021/03/20 01:01:59;;;;;;;6.95;6.22;;;2.90;94.40;3.30;99886.00;;;;343273;28;83306;-90
2021/03/20 01:02:12;;;;;;;7.07;6.38;;;2.90;94.30;3.40;99885.00;;;;345078;28;90767;-89
2021/03/20 01:02:25;;;;;;;6.97;6.28;;;2.90;94.30;3.30;99869.00;;;;344590;28;84361;-92
2021/03/20 01:02:57;;;;;;;7.38;6.53;;;2.90;94.30;3.30;99892.00;;;;344419;28;87266;-89
2021/03/20 01:03:13;;;;;;;6.72;5.95;;;2.90;94.20;3.30;99889.00;;;;344741;28;83572;-89
2021/03/20 01:03:29;;;;;;;6.43;5.78;;;2.90;94.20;3.30;99886.00;;;;343005;28;89501;-90
2021/03/20 01:03:52;;;;;;;7.15;6.00;;;2.90;94.30;3.20;99882.00;;;;344251;28;83483;-89
2021/03/20 01:04:40;;;;;;;7.57;6.38;;;2.90;94.20;3.30;99881.00;;;;345847;28;87327;-89
2021/03/20 01:05:07;;;;;;;7.50;6.38;;;2.80;94.30;3.30;99890.00;;;;346265;28;83651;-89
2021/03/20 01:05:25;;;;;;;8.40;6.65;;;2.80;94.30;3.30;99885.00;;;;343008;28;88227;-89
2021/03/20 01:05:38;;;;;;;7.97;6.78;;;2.80;94.30;3.20;99890.00;;;;347707;28;82444;-90
2021/03/20 01:05:51;;;;;;;7.85;7.05;;;2.80;94.30;3.30;99900.00;;;;347338;27;89528;-90
2021/03/20 01:06:07;;;;;;;6.95;6.25;;;2.80;94.30;3.30;99891.00;;;;347522;28;83439;-90
2021/03/20 01:06:26;;;;;;;7.40;6.05;;;2.80;94.30;3.30;99883.00;;;;346089;28;90910;-91
2021/03/20 01:06:38;;;;;;;7.85;6.50;;;2.80;94.30;3.10;99886.00;;;;346478;28;83259;-89
2021/03/20 01:07:08;;;;;;;9.20;7.63;;;2.90;94.20;3.20;99890.00;;;;347254;27;88643;-89
2021/03/20 01:07:22;;;;;;;9.02;7.32;;;2.80;94.20;3.10;99889.00;;;;345010;28;83348;-89
2021/03/20 01:07:35;;;;;;;8.13;6.85;;;2.80;94.30;3.20;99889.00;;;;343239;28;92699;-90
2021/03/20 01:07:46;;;;;;;8.40;6.65;;;2.80;94.40;3.20;99889.00;;;;344706;28;83687;-90
2021/03/20 01:07:59;;;;;;;7.65;6.47;;;2.80;94.30;3.20;99891.00;;;;341634;28;90779;-89
2021/03/20 01:08:19;;;;;;;8.50;7.15;;;2.80;94.40;3.20;99887.00;;;;343441;28;83376;-89
2021/03/20 01:08:34;;;;;;;8.27;6.80;;;2.80;94.40;3.20;99884.00;;;;344064;28;91536;-89
2021/03/20 01:08:58;;;;;;;6.85;6.20;;;2.80;94.40;3.30;99891.00;;;;343164;28;83417;-88
2021/03/20 01:09:27;;;;;;;7.57;6.63;;;2.80;94.40;3.20;99883.00;;;;343781;28;89557;-89
2021/03/20 01:09:48;;;;;;;6.53;5.80;;;2.80;94.40;3.20;99886.00;;;;348751;27;83271;-89
2021/03/20 01:10:19;;;;;;;7.68;6.30;;;2.80;94.30;3.20;99895.00;;;;348237;27;89130;-89
2021/03/20 01:10:33;;;;;;;6.97;6.18;;;2.80;94.30;3.20;99892.00;;;;343401;28;83617;-89
2021/03/20 01:10:48;;;;;;;7.20;6.50;;;2.80;94.30;3.20;99886.00;;;;342687;28;91677;-89
2021/03/20 01:11:01;;;;;;;7.47;6.75;;;2.80;94.30;3.20;99884.00;;;;345605;28;83467;-89
2021/03/20 01:11:26;;;;;;;7.82;6.65;;;2.80;94.40;3.20;99890.00;;;;343862;28;90686;-89
2021/03/20 01:11:41;;;;;;;7.53;6.38;;;2.80;94.40;3.20;99891.00;;;;346623;28;83679;-90
2021/03/20 01:11:53;;;;;;;8.32;7.42;;;2.80;94.30;3.20;99883.00;;;;346402;28;90812;-89
2021/03/20 01:12:11;;;;;;;7.82;7.03;;;2.80;94.40;3.20;99889.00;;;;343759;28;83614;-90
2021/03/20 01:12:34;;;;;;;8.52;6.40;;;2.80;94.30;3.20;99886.00;;;;342369;28;88893;-89
2021/03/20 01:12:50;;;;;;;8.07;6.93;;;2.80;94.30;3.20;99893.00;;;;343764;28;83745;-89
2021/03/20 01:13:08;;;;;;;8.18;7.38;;;2.80;94.30;3.20;99885.00;;;;342283;28;90554;-89
2021/03/20 01:13:31;;;;;;;7.72;6.68;;;2.80;94.40;3.20;99895.00;;;;345513;28;83954;-89
2021/03/20 01:13:47;;;;;;;6.93;6.22;;;2.80;94.30;3.20;99883.00;;;;342591;28;91607;-91
2021/03/20 01:13:59;;;;;;;7.88;6.93;;;2.80;94.30;3.10;99882.00;;;;342983;28;83347;-89
2021/03/20 01:14:12;;;;;;;8.68;7.18;;;2.80;94.30;3.20;99883.00;;;;343813;28;88717;-90
2021/03/20 01:14:31;;;;;;;7.85;6.53;;;2.70;94.30;3.00;99893.00;;;;344102;28;83727;-89
2021/03/20 01:14:46;;;;;;;6.88;6.10;;;2.70;94.30;3.10;99893.00;;;;343917;28;92382;-89
2021/03/20 01:15:07;;;;;;;6.97;6.28;;;2.70;94.30;3.20;99892.00;;;;342767;28;83439;-89
2021/03/20 01:15:20;;;;;;;7.40;6.60;;;2.70;94.40;3.20;99893.00;;;;343632;28;89610;-89
2021/03/20 01:15:36;;;;;;;7.18;6.45;;;2.80;94.40;3.30;99904.00;;;;345441;28;83581;-89
2021/03/20 01:15:50;;;;;;;6.47;5.78;;;2.80;94.40;3.20;99898.00;;;;343235;28;88677;-89
2021/03/20 01:16:05;;;;;;;7.15;6.20;;;2.80;94.40;3.20;99900.00;;;;343959;28;83382;-89
2021/03/20 01:16:21;;;;;;;7.75;6.80;;;2.80;94.40;3.20;99897.00;;;;344977;28;88837;-90
2021/03/20 01:16:36;;;;;;;7.63;6.70;;;2.80;94.30;3.20;99888.00;;;;341555;28;83259;-89
2021/03/20 01:16:57;;;;;;;7.10;6.30;;;2.80;94.30;3.20;99902.00;;;;343646;28;91343;-89
2021/03/20 01:17:11;;;;;;;7.45;5.88;;;2.80;94.20;3.20;99904.00;;;;342813;28;83816;-89
2021/03/20 01:17:42;;;;;;;7.44;6.36;;;2.80;94.30;3.20;99897.00;;;;342202;28;92107;-90
2021/03/20 01:18:03;;;;;;;7.75;6.30;;;2.80;94.30;3.10;99901.00;;;;344006;28;83634;-89
2021/03/20 01:18:17;;;;;;;8.10;6.72;;;2.80;94.30;3.20;99909.00;;;;342584;28;89394;-89
2021/03/20 01:18:30;;;;;;;8.60;7.10;;;2.80;94.30;3.20;99898.00;;;;341338;28;83974;-89
2021/03/20 01:18:47;;;;;;;7.75;6.65;;;2.80;94.30;3.20;99893.00;;;;346373;28;87594;-90
2021/03/20 01:18:59;;;;;;;7.43;6.65;;;2.80;94.30;3.20;99886.00;;;;342767;28;83535;-89